createdAt,value
2019-05-26T00:01:19.011Z,11.80
2019-05-26T00:03:46.523Z,11.70
2019-05-26T00:06:14.057Z,11.60
2019-05-26T00:08:41.635Z,11.60
2019-05-26T00:11:09.401Z,11.50
2019-05-26T00:13:37.020Z,11.50
2019-05-26T00:16:04.589Z,11.50
2019-05-26T00:18:33.449Z,11.40
2019-05-26T00:21:01.148Z,11.50
2019-05-26T00:23:28.989Z,11.40
2019-05-26T00:25:56.550Z,11.40
2019-05-26T00:28:24.111Z,11.30
2019-05-26T00:30:51.606Z,11.30
2019-05-26T00:33:21.399Z,11.20
2019-05-26T00:35:48.873Z,11.20
2019-05-26T00:38:16.399Z,11.20
2019-05-26T00:40:43.920Z,11.20
2019-05-26T00:43:11.353Z,11.10
2019-05-26T00:45:38.903Z,11.10
2019-05-26T00:48:06.453Z,11.10
2019-05-26T00:50:33.898Z,11.10
2019-05-26T00:53:01.444Z,11.10
2019-05-26T00:55:29.012Z,11.10
2019-05-26T00:57:56.534Z,11.00
2019-05-26T01:00:40.609Z,11.00
2019-05-26T01:03:08.624Z,10.90
2019-05-26T01:05:36.246Z,10.90
2019-05-26T01:08:06.674Z,10.90
2019-05-26T01:10:33.688Z,10.80
2019-05-26T01:13:01.396Z,10.80
2019-05-26T01:15:28.915Z,10.80
2019-05-26T01:17:56.555Z,10.90
2019-05-26T01:20:24.009Z,10.90
2019-05-26T01:22:53.812Z,10.90
2019-05-26T01:25:20.831Z,10.90
2019-05-26T01:27:48.377Z,11.00
2019-05-26T01:30:16.406Z,11.00
2019-05-26T01:32:43.998Z,11.00
2019-05-26T01:35:11.741Z,11.00
2019-05-26T01:37:39.861Z,11.00
2019-05-26T01:40:07.876Z,11.00
2019-05-26T01:42:35.711Z,11.00
2019-05-26T01:45:03.198Z,11.00
2019-05-26T01:47:34.730Z,10.90
2019-05-26T01:50:02.714Z,10.80
2019-05-26T01:52:30.319Z,10.80
2019-05-26T01:54:57.879Z,10.80
2019-05-26T01:57:25.426Z,10.70
2019-05-26T01:59:52.968Z,10.60
2019-05-26T02:02:20.474Z,10.40
2019-05-26T02:04:47.998Z,10.40
2019-05-26T02:07:15.826Z,10.40
2019-05-26T02:09:43.259Z,10.30
2019-05-26T02:12:10.658Z,10.30
2019-05-26T02:14:38.205Z,10.30
2019-05-26T02:17:05.746Z,10.20
2019-05-26T02:19:33.276Z,10.30
2019-05-26T02:22:00.810Z,10.30
2019-05-26T02:24:28.312Z,10.30
2019-05-26T02:26:55.920Z,10.40
2019-05-26T02:29:23.442Z,10.50
2019-05-26T02:31:50.984Z,10.60
2019-05-26T02:34:18.490Z,10.50
2019-05-26T02:36:46.261Z,10.50
2019-05-26T02:39:13.796Z,10.50
2019-05-26T02:41:41.231Z,10.50
2019-05-26T02:44:08.751Z,10.50
2019-05-26T02:46:37.331Z,10.50
2019-05-26T02:49:04.826Z,10.40
2019-05-26T02:51:32.283Z,10.40
2019-05-26T02:53:59.867Z,10.30
2019-05-26T02:56:27.556Z,10.30
2019-05-26T02:58:55.080Z,10.20
2019-05-26T03:01:23.479Z,10.20
2019-05-26T03:03:51.250Z,10.30
2019-05-26T03:06:20.958Z,10.20
2019-05-26T03:08:49.664Z,10.30
2019-05-26T03:11:18.113Z,10.30
2019-05-26T03:13:48.343Z,10.30
2019-05-26T03:16:19.085Z,10.30
2019-05-26T03:18:48.723Z,10.30
2019-05-26T03:21:19.365Z,10.20
2019-05-26T03:23:48.845Z,10.20
2019-05-26T03:26:20.303Z,10.20
2019-05-26T03:28:47.827Z,10.20
2019-05-26T03:31:15.438Z,10.20
2019-05-26T03:33:43.073Z,10.20
2019-05-26T03:36:11.017Z,10.20
2019-05-26T03:38:38.528Z,10.20
2019-05-26T03:41:06.043Z,10.20
2019-05-26T03:43:33.572Z,10.20
2019-05-26T03:46:16.429Z,10.20
2019-05-26T03:48:44.201Z,10.20
2019-05-26T03:51:12.615Z,10.20
2019-05-26T03:53:40.196Z,10.20
2019-05-26T03:56:08.016Z,10.30
2019-05-26T03:58:35.549Z,10.30
2019-05-26T04:01:03.106Z,10.40
2019-05-26T04:03:30.669Z,10.40
2019-05-26T04:05:58.164Z,10.50
2019-05-26T04:08:25.684Z,10.60
2019-05-26T04:10:53.166Z,10.60
2019-05-26T04:13:20.632Z,10.60
2019-05-26T04:15:48.157Z,10.70
2019-05-26T04:18:15.692Z,10.70
2019-05-26T04:20:45.897Z,10.70
2019-05-26T04:23:12.694Z,10.70
2019-05-26T04:25:40.310Z,10.70
2019-05-26T04:28:07.900Z,10.70
2019-05-26T04:30:35.427Z,10.80
2019-05-26T04:33:02.938Z,10.90
2019-05-26T04:35:30.484Z,10.90
2019-05-26T04:37:58.011Z,10.80
2019-05-26T04:40:27.524Z,10.90
2019-05-26T04:42:54.841Z,11.00
2019-05-26T04:45:22.399Z,11.00
2019-05-26T04:47:49.931Z,11.10
2019-05-26T04:50:17.477Z,11.10
2019-05-26T04:53:04.470Z,11.20
2019-05-26T04:55:14.394Z,11.30
2019-05-26T04:57:41.955Z,11.40
2019-05-26T05:00:09.567Z,11.50
2019-05-26T05:02:37.103Z,11.60
2019-05-26T05:05:04.755Z,11.70
2019-05-26T05:07:32.154Z,11.70
2019-05-26T05:09:59.567Z,11.80
2019-05-26T05:12:26.999Z,11.90
2019-05-26T05:14:54.558Z,11.90
2019-05-26T05:17:23.096Z,12.10
2019-05-26T05:19:50.637Z,12.20
2019-05-26T05:22:18.185Z,12.40
2019-05-26T05:24:45.681Z,12.60
2019-05-26T05:27:13.326Z,12.80
2019-05-26T05:29:40.818Z,13.00
2019-05-26T05:32:08.373Z,13.10
2019-05-26T05:34:35.920Z,13.30
2019-05-26T05:37:03.462Z,13.40
2019-05-26T05:39:30.942Z,13.40
2019-05-26T05:41:58.501Z,13.50
2019-05-26T05:44:26.093Z,13.40
2019-05-26T05:46:53.771Z,13.40
2019-05-26T05:49:24.053Z,13.50
2019-05-26T05:51:51.609Z,13.60
2019-05-26T05:54:19.172Z,13.70
2019-05-26T05:56:46.801Z,13.80
2019-05-26T05:59:14.361Z,13.90
2019-05-26T06:01:41.948Z,14.00
2019-05-26T06:04:09.481Z,14.20
2019-05-26T06:06:37.101Z,14.30
2019-05-26T06:09:05.701Z,14.40
2019-05-26T06:11:33.259Z,14.50
2019-05-26T06:14:03.995Z,14.70
2019-05-26T06:16:32.935Z,14.80
2019-05-26T06:19:00.472Z,14.70
2019-05-26T06:21:28.015Z,14.70
2019-05-26T06:23:55.438Z,14.70
2019-05-26T06:26:23.110Z,14.80
2019-05-26T06:28:52.419Z,14.90
2019-05-26T06:31:22.996Z,14.80
2019-05-26T06:33:51.600Z,14.80
2019-05-26T06:36:20.349Z,14.90
2019-05-26T06:38:47.913Z,15.00
2019-05-26T06:41:31.863Z,15.00
2019-05-26T06:43:44.946Z,15.20
2019-05-26T06:46:12.564Z,15.20
2019-05-26T06:48:42.089Z,15.30
2019-05-26T06:51:09.644Z,15.40
2019-05-26T06:53:37.645Z,15.40
2019-05-26T06:56:05.308Z,15.40
2019-05-26T06:58:34.303Z,15.40
2019-05-26T07:01:01.968Z,15.60
2019-05-26T07:03:29.498Z,15.60
2019-05-26T07:05:58.160Z,15.60
2019-05-26T07:08:25.754Z,15.50
2019-05-26T07:10:53.268Z,15.50
2019-05-26T07:13:20.789Z,15.50
2019-05-26T07:15:55.534Z,15.40
2019-05-26T07:18:23.153Z,15.40
2019-05-26T07:20:50.700Z,15.40
2019-05-26T07:23:18.330Z,15.50
2019-05-26T07:25:46.030Z,15.50
2019-05-26T07:28:13.551Z,15.50
2019-05-26T07:30:41.158Z,15.50
2019-05-26T07:33:08.752Z,15.60
2019-05-26T07:35:37.633Z,15.60
2019-05-26T07:38:06.320Z,15.80
2019-05-26T07:40:33.854Z,15.90
2019-05-26T07:43:02.708Z,16.00
2019-05-26T07:45:33.398Z,16.00
2019-05-26T07:48:02.315Z,16.00
2019-05-26T07:50:31.366Z,16.00
2019-05-26T07:53:01.274Z,16.10
2019-05-26T07:55:28.932Z,16.10
2019-05-26T07:57:57.592Z,16.20
2019-05-26T08:00:25.343Z,16.50
2019-05-26T08:02:53.712Z,16.60
2019-05-26T08:05:21.253Z,16.70
2019-05-26T08:07:48.931Z,16.80
2019-05-26T08:10:16.704Z,16.70
2019-05-26T08:12:44.220Z,16.70
2019-05-26T08:15:12.075Z,16.70
2019-05-26T08:17:39.633Z,16.70
2019-05-26T08:20:09.106Z,16.80
2019-05-26T08:22:40.071Z,16.80
2019-05-26T08:25:07.804Z,17.00
2019-05-26T08:27:37.281Z,17.10
2019-05-26T08:30:08.878Z,17.20
2019-05-26T08:32:36.445Z,17.10
2019-05-26T08:35:04.483Z,17.20
2019-05-26T08:37:35.134Z,17.30
2019-05-26T08:40:18.059Z,17.50
2019-05-26T08:42:49.546Z,17.60
2019-05-26T08:45:21.117Z,17.70
2019-05-26T08:47:48.971Z,17.80
2019-05-26T08:50:16.907Z,18.20
2019-05-26T08:52:44.442Z,18.40
2019-05-26T08:55:11.968Z,18.50
2019-05-26T08:57:39.738Z,18.40
2019-05-26T09:00:07.904Z,18.50
2019-05-26T09:02:35.662Z,18.50
2019-05-26T09:05:05.133Z,18.60
2019-05-26T09:07:33.620Z,18.80
2019-05-26T09:10:01.152Z,19.00
2019-05-26T09:12:28.755Z,19.10
2019-05-26T09:14:56.552Z,19.30
2019-05-26T09:17:24.107Z,19.40
2019-05-26T09:19:52.061Z,19.40
2019-05-26T09:22:19.625Z,19.50
2019-05-26T09:24:47.206Z,19.50
2019-05-26T09:27:16.280Z,19.70
2019-05-26T09:29:43.827Z,20.00
2019-05-26T09:32:14.578Z,20.00
2019-05-26T09:34:42.133Z,20.00
2019-05-26T09:37:10.702Z,20.10
2019-05-26T09:39:38.324Z,20.20
2019-05-26T09:42:05.954Z,20.00
2019-05-26T09:44:33.488Z,20.00
2019-05-26T09:47:01.047Z,20.00
2019-05-26T09:49:28.585Z,20.00
2019-05-26T09:51:56.181Z,20.00
2019-05-26T09:54:24.083Z,20.00
2019-05-26T09:56:51.615Z,19.90
2019-05-26T09:59:19.354Z,20.10
2019-05-26T10:01:46.933Z,20.10
2019-05-26T10:04:14.532Z,20.10
2019-05-26T10:06:42.223Z,20.30
2019-05-26T10:09:11.050Z,20.60
2019-05-26T10:11:38.581Z,20.80
2019-05-26T10:14:06.086Z,20.80
2019-05-26T10:16:33.819Z,20.70
2019-05-26T10:19:01.400Z,20.70
2019-05-26T10:21:29.056Z,20.60
2019-05-26T10:23:56.648Z,20.70
2019-05-26T10:26:24.226Z,20.70
2019-05-26T10:28:51.813Z,20.70
2019-05-26T10:31:19.388Z,20.50
2019-05-26T10:33:46.926Z,20.60
2019-05-26T10:36:15.473Z,20.80
2019-05-26T10:38:44.860Z,20.70
2019-05-26T10:41:12.385Z,21.00
2019-05-26T10:43:47.263Z,21.20
2019-05-26T10:46:09.243Z,21.30
2019-05-26T10:48:36.816Z,21.40
2019-05-26T10:51:06.888Z,21.30
2019-05-26T10:53:34.165Z,21.50
2019-05-26T10:56:01.747Z,21.60
2019-05-26T10:58:29.377Z,21.40
2019-05-26T11:00:57.551Z,21.40
2019-05-26T11:03:25.079Z,21.60
2019-05-26T11:05:54.956Z,21.80
2019-05-26T11:08:22.536Z,21.70
2019-05-26T11:10:50.160Z,21.70
2019-05-26T11:13:17.672Z,22.00
2019-05-26T11:15:45.542Z,22.20
2019-05-26T11:18:14.085Z,22.20
2019-05-26T11:20:41.799Z,22.00
2019-05-26T11:23:09.309Z,22.10
2019-05-26T11:25:36.858Z,22.20
2019-05-26T11:28:04.373Z,22.10
2019-05-26T11:30:33.508Z,22.00
2019-05-26T11:33:01.033Z,22.10
2019-05-26T11:35:28.599Z,22.10
2019-05-26T11:37:56.114Z,22.20
2019-05-26T11:40:23.708Z,22.40
2019-05-26T11:42:51.687Z,22.50
2019-05-26T11:45:19.315Z,22.60
2019-05-26T11:47:46.747Z,22.70
2019-05-26T11:50:14.551Z,22.40
2019-05-26T11:52:42.081Z,22.50
2019-05-26T11:55:10.916Z,22.70
2019-05-26T11:57:38.505Z,22.80
2019-05-26T12:00:06.176Z,22.70
2019-05-26T12:02:33.838Z,22.70
2019-05-26T12:05:01.579Z,22.50
2019-05-26T12:07:29.128Z,22.20
2019-05-26T12:09:56.789Z,22.10
2019-05-26T12:12:24.348Z,21.80
2019-05-26T12:14:51.965Z,21.60
2019-05-26T12:17:19.492Z,21.40
2019-05-26T12:19:47.001Z,21.30
2019-05-26T12:22:14.702Z,21.30
2019-05-26T12:24:42.278Z,21.10
2019-05-26T12:27:09.843Z,21.10
2019-05-26T12:29:37.824Z,21.10
2019-05-26T12:32:05.385Z,21.30
2019-05-26T12:34:33.000Z,21.60
2019-05-26T12:37:00.635Z,21.80
2019-05-26T12:39:28.184Z,21.90
2019-05-26T12:41:55.791Z,21.90
2019-05-26T12:44:23.424Z,21.70
2019-05-26T12:46:51.045Z,21.90
2019-05-26T12:49:18.566Z,22.30
2019-05-26T12:51:46.097Z,22.70
2019-05-26T12:54:13.713Z,22.80
2019-05-26T12:56:41.348Z,22.70
2019-05-26T12:59:10.017Z,22.90
2019-05-26T13:01:37.623Z,23.00
2019-05-26T13:04:05.121Z,23.70
2019-05-26T13:06:34.770Z,23.90
2019-05-26T13:09:03.368Z,23.90
2019-05-26T13:11:32.212Z,23.50
2019-05-26T13:14:01.037Z,23.00
2019-05-26T13:16:28.588Z,22.70
2019-05-26T13:18:56.118Z,22.70
2019-05-26T13:21:23.649Z,22.80
2019-05-26T13:23:51.289Z,22.90
2019-05-26T13:26:19.860Z,23.00
2019-05-26T13:28:47.512Z,23.00
2019-05-26T13:31:15.047Z,23.00
2019-05-26T13:33:42.562Z,23.00
2019-05-26T13:36:10.149Z,23.10
2019-05-26T13:38:37.652Z,23.10
2019-05-26T13:41:05.184Z,23.20
2019-05-26T13:43:32.781Z,23.30
2019-05-26T13:46:00.502Z,23.30
2019-05-26T13:48:40.180Z,23.20
2019-05-26T13:51:07.721Z,22.90
2019-05-26T13:53:35.319Z,23.10
2019-05-26T13:56:03.832Z,23.30
2019-05-26T13:58:31.424Z,23.30
2019-05-26T14:00:59.103Z,23.30
2019-05-26T14:03:26.632Z,23.20
2019-05-26T14:05:54.162Z,23.30
2019-05-26T14:08:21.691Z,23.30
2019-05-26T14:10:49.227Z,23.30
2019-05-26T14:13:16.772Z,23.70
2019-05-26T14:15:46.245Z,23.60
2019-05-26T14:18:18.229Z,23.60
2019-05-26T14:20:45.934Z,23.30
2019-05-26T14:23:13.477Z,23.00
2019-05-26T14:25:42.327Z,23.00
2019-05-26T14:28:09.953Z,22.90
2019-05-26T14:31:07.634Z,22.70
2019-05-26T14:33:35.310Z,22.60
2019-05-26T14:36:02.824Z,22.70
2019-05-26T14:38:42.641Z,22.80
2019-05-26T14:40:59.925Z,22.90
2019-05-26T14:43:27.610Z,22.90
2019-05-26T14:45:55.262Z,22.90
2019-05-26T14:48:22.859Z,22.50
2019-05-26T14:50:50.491Z,22.40
2019-05-26T14:53:18.132Z,22.30
2019-05-26T14:55:49.096Z,22.20
2019-05-26T14:58:16.921Z,22.00
2019-05-26T15:00:44.670Z,22.00
2019-05-26T15:03:12.223Z,22.20
2019-05-26T15:05:39.916Z,22.50
2019-05-26T15:08:07.377Z,22.90
2019-05-26T15:10:34.925Z,22.80
2019-05-26T15:13:02.507Z,22.80
2019-05-26T15:15:35.075Z,22.70
2019-05-26T15:18:02.975Z,22.50
2019-05-26T15:24:16.829Z,22.30
2019-05-26T15:27:10.037Z,21.90
2019-05-26T15:29:38.519Z,21.90
2019-05-26T15:32:08.594Z,21.90
2019-05-26T15:34:40.557Z,22.00
2019-05-26T15:37:13.816Z,22.10
2019-05-26T15:39:48.494Z,22.10
2019-05-26T15:42:41.367Z,22.20
2019-05-26T15:45:10.150Z,22.20
2019-05-26T15:47:40.769Z,22.30
2019-05-26T15:50:13.576Z,22.30
2019-05-26T15:52:40.309Z,22.20
2019-05-26T15:55:07.983Z,22.00
2019-05-26T15:57:35.509Z,22.10
2019-05-26T16:00:03.683Z,22.30
2019-05-26T16:02:31.377Z,22.60
2019-05-26T16:10:43.224Z,21.90
2019-05-26T16:36:33.639Z,21.10
2019-05-26T16:44:09.210Z,21.30
2019-05-26T16:46:16.252Z,21.00
2019-05-26T16:48:43.835Z,20.90
2019-05-26T16:51:11.398Z,20.80
2019-05-26T16:54:35.602Z,20.80
2019-05-26T16:57:33.403Z,20.70
2019-05-26T17:00:28.469Z,20.50
2019-05-26T17:03:37.894Z,20.30
2019-05-26T17:07:22.398Z,20.20
2019-05-26T17:09:51.542Z,20.10
2019-05-26T17:16:03.703Z,20.00
2019-05-26T17:25:02.177Z,19.50
2019-05-26T17:27:29.784Z,19.40
2019-05-26T17:30:06.155Z,19.30
2019-05-26T17:32:41.908Z,19.20
2019-05-26T17:35:22.509Z,19.10
2019-05-26T17:37:50.119Z,19.10
2019-05-26T17:40:21.431Z,19.10
2019-05-26T17:42:49.549Z,19.10
2019-05-26T17:45:17.291Z,19.10
2019-05-26T17:47:44.942Z,19.00
2019-05-26T17:50:12.819Z,18.90
2019-05-26T17:52:44.421Z,18.90
2019-05-26T17:55:22.946Z,18.90
2019-05-26T17:57:57.287Z,18.80
2019-05-26T18:00:28.777Z,18.90
2019-05-26T18:03:00.722Z,18.90
2019-05-26T18:05:29.095Z,18.90
2019-05-26T18:08:14.252Z,18.90
2019-05-26T18:10:46.667Z,18.80
2019-05-26T18:13:34.750Z,18.90
2019-05-26T18:16:21.184Z,19.10
2019-05-26T18:18:42.668Z,19.90
2019-05-26T18:21:10.349Z,20.60
2019-05-26T18:24:38.714Z,20.90
2019-05-26T18:30:44.231Z,20.30
2019-05-26T18:33:11.966Z,19.70
2019-05-26T18:35:39.705Z,19.20
2019-05-26T18:38:09.057Z,19.00
2019-05-26T18:40:37.263Z,18.90
2019-05-26T18:43:07.674Z,18.70
2019-05-26T18:45:35.484Z,18.60
2019-05-26T18:48:03.983Z,18.50
2019-05-26T18:50:33.722Z,18.40
2019-05-26T18:53:01.561Z,18.20
2019-05-26T18:55:32.949Z,18.20
2019-05-26T18:58:03.087Z,18.20
2019-05-26T19:00:50.540Z,18.10
2019-05-26T19:03:18.929Z,18.20
2019-05-26T19:05:46.545Z,18.10
2019-05-26T19:08:14.255Z,18.00
2019-05-26T19:10:41.920Z,17.90
2019-05-26T19:13:10.735Z,17.90
2019-05-26T19:15:38.463Z,17.80
2019-05-26T19:18:19.502Z,17.90
2019-05-26T19:20:35.515Z,17.90
2019-05-26T19:23:03.223Z,17.80
2019-05-26T19:25:30.879Z,17.80
2019-05-26T19:27:58.487Z,17.70
2019-05-26T19:30:26.111Z,17.70
2019-05-26T19:32:53.749Z,17.70
2019-05-26T19:35:21.357Z,17.70
2019-05-26T19:37:49.011Z,17.70
2019-05-26T19:40:18.065Z,17.70
2019-05-26T19:42:45.757Z,17.60
2019-05-26T19:45:13.673Z,17.60
2019-05-26T19:47:42.382Z,17.60
2019-05-26T19:50:10.351Z,17.60
2019-05-26T19:52:38.086Z,17.60
2019-05-26T19:55:06.431Z,17.50
2019-05-26T19:57:35.070Z,17.50
2019-05-26T20:00:05.267Z,17.50
2019-05-26T20:02:32.920Z,17.50
2019-05-26T20:05:00.581Z,17.40
2019-05-26T20:07:28.224Z,17.40
2019-05-26T20:10:15.420Z,17.40
2019-05-26T20:12:43.124Z,17.40
2019-05-26T20:15:11.154Z,17.40
2019-05-26T20:17:39.422Z,17.40
2019-05-26T20:20:07.798Z,17.40
2019-05-26T20:22:35.566Z,17.40
2019-05-26T20:25:03.715Z,17.40
2019-05-26T20:27:34.520Z,17.40
2019-05-26T20:30:02.254Z,17.30
2019-05-26T20:32:29.972Z,17.30
2019-05-26T20:34:59.373Z,17.20
2019-05-26T20:37:29.923Z,17.10
2019-05-26T20:39:59.726Z,17.10
2019-05-26T20:42:28.680Z,17.10
2019-05-26T20:45:06.903Z,17.00
2019-05-26T20:47:34.577Z,17.00
2019-05-26T20:50:04.391Z,17.00
2019-05-26T20:52:33.609Z,17.00
2019-05-26T20:55:01.207Z,17.00
2019-05-26T20:57:31.922Z,16.90
2019-05-26T20:59:59.591Z,16.80
2019-05-26T21:02:27.169Z,16.90
2019-05-26T21:04:54.753Z,16.80
2019-05-26T21:07:22.326Z,16.80
2019-05-26T21:09:49.903Z,16.80
2019-05-26T21:12:17.516Z,16.60
2019-05-26T21:14:45.119Z,16.40
2019-05-26T21:17:12.680Z,16.30
2019-05-26T21:19:40.282Z,16.20
2019-05-26T21:22:07.908Z,16.10
2019-05-26T21:24:35.486Z,16.10
2019-05-26T21:27:22.525Z,16.00
2019-05-26T21:29:50.110Z,15.80
2019-05-26T21:32:17.685Z,15.70
2019-05-26T21:34:45.298Z,15.60
2019-05-26T21:37:12.935Z,15.50
2019-05-26T21:39:40.511Z,15.40
2019-05-26T21:42:08.076Z,15.30
2019-05-26T21:44:35.682Z,15.30
2019-05-26T21:47:15.052Z,15.30
2019-05-26T21:50:03.440Z,15.30
2019-05-26T21:52:38.868Z,15.30
2019-05-26T21:55:18.415Z,15.30
2019-05-26T21:57:48.601Z,15.30
2019-05-26T22:00:22.095Z,15.30
2019-05-26T22:02:52.776Z,15.30
2019-05-26T22:05:22.038Z,15.30
2019-05-26T22:07:49.637Z,15.30
2019-05-26T22:10:17.354Z,15.30
2019-05-26T22:12:47.682Z,15.30
2019-05-26T22:15:15.519Z,15.30
2019-05-26T22:17:43.115Z,15.30
2019-05-26T22:20:20.072Z,15.30
2019-05-26T22:22:53.283Z,15.30
2019-05-26T22:25:20.831Z,15.30
2019-05-26T22:28:11.608Z,15.20
2019-05-26T22:30:39.181Z,15.30
2019-05-26T22:33:06.825Z,15.30
2019-05-26T22:35:34.389Z,15.30
2019-05-26T22:38:01.988Z,15.20
2019-05-26T22:40:29.548Z,15.10
2019-05-26T22:42:57.117Z,15.10
2019-05-26T22:45:24.694Z,15.10
2019-05-26T22:47:52.245Z,15.20
2019-05-26T22:50:21.386Z,15.10
2019-05-26T22:52:48.929Z,15.10
2019-05-26T22:55:16.471Z,15.10
2019-05-26T22:57:43.973Z,15.00
2019-05-26T23:00:12.386Z,15.00
2019-05-26T23:02:40.058Z,15.00
2019-05-26T23:05:07.766Z,15.00
2019-05-26T23:07:35.238Z,15.10
2019-05-26T23:10:03.588Z,15.10
2019-05-26T23:12:31.159Z,15.10
2019-05-26T23:14:58.674Z,15.10
2019-05-26T23:17:26.215Z,15.00
2019-05-26T23:19:53.632Z,15.10
2019-05-26T23:22:21.205Z,15.00
2019-05-26T23:24:48.723Z,15.00
2019-05-26T23:27:16.293Z,15.00
2019-05-26T23:29:43.839Z,15.00
2019-05-26T23:32:11.359Z,15.00
2019-05-26T23:34:38.914Z,14.90
2019-05-26T23:37:06.480Z,14.90
2019-05-26T23:39:34.019Z,14.90
2019-05-26T23:42:01.498Z,14.90
2019-05-26T23:44:29.103Z,14.90
2019-05-26T23:46:56.800Z,14.80
2019-05-26T23:49:24.309Z,14.90
2019-05-26T23:51:51.871Z,14.90
2019-05-26T23:54:19.382Z,14.90
2019-05-26T23:56:46.942Z,14.90
2019-05-26T23:59:14.606Z,14.90
